createdAt,value
2018-07-05T00:02:08.734Z,18.53
2018-07-05T00:04:48.154Z,18.52
2018-07-05T00:07:27.646Z,18.56
2018-07-05T00:10:07.257Z,18.53
2018-07-05T00:12:46.817Z,18.52
2018-07-05T00:15:26.448Z,18.50
2018-07-05T00:18:05.870Z,18.47
2018-07-05T00:20:45.381Z,18.45
2018-07-05T00:23:24.861Z,18.49
2018-07-05T00:26:04.309Z,18.51
2018-07-05T00:28:43.885Z,18.46
2018-07-05T00:31:23.275Z,18.48
2018-07-05T00:34:02.901Z,18.47
2018-07-05T00:36:42.352Z,18.46
2018-07-05T00:39:21.881Z,18.48
2018-07-05T00:42:01.717Z,18.41
2018-07-05T00:44:41.222Z,18.29
2018-07-05T00:47:20.692Z,18.24
2018-07-05T00:50:00.107Z,18.23
2018-07-05T00:52:39.742Z,18.23
2018-07-05T00:55:19.416Z,18.19
2018-07-05T00:57:58.969Z,18.13
2018-07-05T01:00:38.693Z,18.07
2018-07-05T01:03:18.385Z,17.98
2018-07-05T01:05:57.815Z,18.00
2018-07-05T01:08:37.361Z,18.02
2018-07-05T01:11:16.721Z,18.08
2018-07-05T01:13:56.231Z,18.04
2018-07-05T01:16:35.585Z,18.07
2018-07-05T01:19:15.115Z,18.06
2018-07-05T01:21:54.411Z,17.98
2018-07-05T01:24:33.995Z,17.93
2018-07-05T01:27:13.516Z,17.95
2018-07-05T01:29:52.955Z,17.94
2018-07-05T01:32:32.407Z,17.90
2018-07-05T01:35:11.743Z,17.88
2018-07-05T01:37:51.044Z,17.82
2018-07-05T01:40:30.496Z,17.77
2018-07-05T01:43:10.156Z,17.59
2018-07-05T01:45:49.686Z,17.51
2018-07-05T01:48:29.166Z,17.47
2018-07-05T01:51:08.678Z,17.45
2018-07-05T01:53:48.254Z,17.45
2018-07-05T01:56:27.986Z,17.37
2018-07-05T01:59:07.406Z,17.35
2018-07-05T02:01:46.850Z,17.38
2018-07-05T02:04:26.370Z,17.45
2018-07-05T02:07:05.824Z,17.43
2018-07-05T02:09:45.225Z,17.37
2018-07-05T02:12:24.834Z,17.33
2018-07-05T02:15:04.310Z,17.31
2018-07-05T02:17:43.793Z,17.27
2018-07-05T02:20:23.303Z,17.26
2018-07-05T02:23:02.957Z,17.23
2018-07-05T02:25:42.329Z,17.18
2018-07-05T02:28:21.989Z,17.18
2018-07-05T02:31:01.370Z,17.15
2018-07-05T02:33:40.916Z,17.09
2018-07-05T02:36:20.806Z,17.08
2018-07-05T02:39:05.781Z,17.09
2018-07-05T02:41:45.461Z,17.04
2018-07-05T02:44:24.899Z,17.04
2018-07-05T02:47:04.368Z,17.02
2018-07-05T02:49:43.973Z,16.96
2018-07-05T02:52:23.416Z,16.96
2018-07-05T02:55:03.281Z,17.00
2018-07-05T02:57:42.711Z,16.95
2018-07-05T03:00:22.248Z,17.04
2018-07-05T03:03:01.827Z,17.08
2018-07-05T03:05:41.433Z,17.05
2018-07-05T03:08:21.152Z,17.03
2018-07-05T03:11:00.619Z,17.00
2018-07-05T03:13:40.069Z,16.94
2018-07-05T03:16:19.698Z,16.94
2018-07-05T03:18:59.159Z,16.94
2018-07-05T03:21:38.595Z,16.91
2018-07-05T03:24:17.880Z,16.90
2018-07-05T03:26:57.573Z,16.89
2018-07-05T03:29:37.026Z,16.95
2018-07-05T03:32:16.676Z,16.97
2018-07-05T03:34:56.078Z,17.04
2018-07-05T03:37:35.610Z,16.95
2018-07-05T03:40:15.141Z,16.93
2018-07-05T03:42:54.777Z,16.96
2018-07-05T03:45:34.201Z,17.06
2018-07-05T03:48:13.562Z,17.16
2018-07-05T03:50:52.961Z,17.21
2018-07-05T03:53:32.657Z,17.29
2018-07-05T03:56:12.393Z,17.34
2018-07-05T03:58:51.959Z,17.47
2018-07-05T04:01:32.461Z,17.47
2018-07-05T04:04:11.936Z,17.50
2018-07-05T04:06:51.460Z,17.57
2018-07-05T04:09:30.847Z,17.62
2018-07-05T04:12:10.276Z,17.65
2018-07-05T04:14:49.782Z,17.71
2018-07-05T04:17:29.218Z,17.73
2018-07-05T04:20:08.694Z,17.80
2018-07-05T04:22:48.334Z,17.91
2018-07-05T04:25:27.826Z,17.90
2018-07-05T04:28:07.478Z,18.03
2018-07-05T04:30:46.963Z,18.16
2018-07-05T04:33:26.498Z,18.27
2018-07-05T04:36:06.008Z,18.39
2018-07-05T04:38:45.525Z,18.53
2018-07-05T04:41:25.062Z,18.53
2018-07-05T04:44:04.565Z,18.60
2018-07-05T04:46:44.069Z,18.60
2018-07-05T04:49:23.617Z,18.71
2018-07-05T04:52:03.151Z,18.72
2018-07-05T04:54:42.587Z,18.87
2018-07-05T04:57:22.233Z,19.00
2018-07-05T05:00:01.667Z,19.09
2018-07-05T05:02:41.117Z,19.23
2018-07-05T05:05:20.751Z,19.35
2018-07-05T05:08:00.253Z,19.48
2018-07-05T05:10:39.609Z,19.53
2018-07-05T05:13:19.436Z,19.54
2018-07-05T05:15:59.046Z,19.76
2018-07-05T05:18:38.571Z,19.76
2018-07-05T05:21:18.026Z,19.83
2018-07-05T05:23:57.714Z,20.01
2018-07-05T05:26:37.186Z,20.20
2018-07-05T05:29:16.718Z,20.30
2018-07-05T05:31:56.145Z,20.35
2018-07-05T05:34:35.600Z,20.43
2018-07-05T05:37:15.109Z,20.64
2018-07-05T05:39:54.569Z,20.79
2018-07-05T05:42:34.213Z,20.91
2018-07-05T05:45:13.782Z,21.00
2018-07-05T05:47:53.385Z,21.19
2018-07-05T05:50:32.886Z,21.24
2018-07-05T05:53:12.260Z,21.46
2018-07-05T05:55:51.719Z,21.59
2018-07-05T05:58:31.536Z,21.66
2018-07-05T06:01:11.009Z,21.74
2018-07-05T06:03:50.619Z,21.92
2018-07-05T06:06:30.121Z,22.04
2018-07-05T06:09:09.615Z,22.10
2018-07-05T06:11:49.069Z,21.98
2018-07-05T06:14:28.480Z,22.22
2018-07-05T06:17:08.011Z,22.44
2018-07-05T06:19:47.796Z,22.65
2018-07-05T06:22:27.352Z,22.70
2018-07-05T06:25:06.975Z,22.85
2018-07-05T06:27:46.496Z,22.77
2018-07-05T06:30:26.024Z,22.77
2018-07-05T06:33:05.494Z,22.90
2018-07-05T06:35:44.968Z,23.08
2018-07-05T06:38:24.566Z,23.24
2018-07-05T06:41:03.982Z,23.46
2018-07-05T06:43:43.482Z,23.42
2018-07-05T06:46:22.988Z,23.63
2018-07-05T06:49:02.553Z,23.59
2018-07-05T06:51:42.056Z,23.82
2018-07-05T06:54:21.738Z,24.04
2018-07-05T06:57:01.366Z,24.09
2018-07-05T06:59:40.840Z,23.78
2018-07-05T07:02:20.369Z,23.85
2018-07-05T07:04:59.907Z,24.23
2018-07-05T07:07:39.531Z,24.44
2018-07-05T07:10:19.033Z,24.53
2018-07-05T07:12:58.524Z,24.73
2018-07-05T07:15:38.008Z,24.99
2018-07-05T07:18:17.579Z,24.81
2018-07-05T07:20:57.102Z,24.47
2018-07-05T07:23:36.637Z,24.85
2018-07-05T07:26:16.137Z,25.50
2018-07-05T07:28:55.617Z,25.90
2018-07-05T07:31:35.203Z,25.93
2018-07-05T07:34:14.825Z,26.12
2018-07-05T07:36:54.231Z,25.97
2018-07-05T07:39:33.724Z,26.26
2018-07-05T07:42:00.846Z,26.42
2018-07-05T07:44:27.949Z,26.76
2018-07-05T07:46:55.054Z,26.55
2018-07-05T07:49:22.162Z,26.43
2018-07-05T07:51:49.262Z,27.08
2018-07-05T07:54:16.358Z,26.67
2018-07-05T07:56:43.458Z,26.89
2018-07-05T07:59:10.551Z,27.32
2018-07-05T08:01:37.661Z,27.98
2018-07-05T08:04:04.774Z,28.16
2018-07-05T08:06:31.871Z,28.11
2018-07-05T08:08:58.975Z,27.89
2018-07-05T08:11:26.397Z,28.58
2018-07-05T08:13:53.503Z,28.80
2018-07-05T08:16:20.637Z,28.85
2018-07-05T08:18:47.703Z,28.79
2018-07-05T08:21:14.802Z,28.59
2018-07-05T08:23:41.901Z,28.12
2018-07-05T08:26:09.011Z,28.11
2018-07-05T08:28:36.108Z,28.05
2018-07-05T08:31:03.211Z,27.85
2018-07-05T08:33:30.643Z,28.07
2018-07-05T08:35:57.744Z,28.03
2018-07-05T08:38:24.839Z,28.11
2018-07-05T08:40:51.951Z,28.21
2018-07-05T08:43:19.065Z,28.08
2018-07-05T08:45:46.155Z,28.26
2018-07-05T08:48:13.268Z,28.44
2018-07-05T08:50:40.348Z,28.69
2018-07-05T08:53:07.459Z,28.12
2018-07-05T08:55:34.562Z,28.56
2018-07-05T08:58:01.978Z,28.88
2018-07-05T09:00:29.076Z,28.91
2018-07-05T09:02:56.189Z,29.26
2018-07-05T09:05:23.310Z,29.64
2018-07-05T09:07:50.387Z,29.58
2018-07-05T09:10:17.498Z,29.80
2018-07-05T09:12:44.654Z,28.79
2018-07-05T09:15:12.029Z,29.74
2018-07-05T09:17:39.263Z,30.07
2018-07-05T09:20:06.253Z,30.43
2018-07-05T09:22:33.362Z,30.51
2018-07-05T09:25:00.473Z,30.60
2018-07-05T09:27:27.591Z,30.64
2018-07-05T09:29:54.682Z,30.39
2018-07-05T09:32:21.790Z,30.26
2018-07-05T09:34:48.914Z,30.30
2018-07-05T09:37:16.077Z,30.64
2018-07-05T09:39:43.118Z,28.86
2018-07-05T09:42:10.216Z,30.38
2018-07-05T09:44:37.314Z,31.24
2018-07-05T09:47:04.537Z,31.45
2018-07-05T09:49:31.520Z,31.71
2018-07-05T09:51:58.627Z,30.89
2018-07-05T09:54:25.778Z,30.58
2018-07-05T09:56:53.062Z,32.24
2018-07-05T09:59:20.166Z,32.21
2018-07-05T10:01:47.277Z,31.75
2018-07-05T10:04:14.385Z,31.91
2018-07-05T10:06:41.497Z,32.05
2018-07-05T10:09:08.601Z,32.38
2018-07-05T10:11:35.697Z,32.76
2018-07-05T10:14:02.802Z,33.17
2018-07-05T10:16:29.933Z,31.45
2018-07-05T10:18:57.069Z,32.95
2018-07-05T10:21:24.173Z,33.73
2018-07-05T10:23:51.282Z,33.92
2018-07-05T10:26:18.389Z,33.51
2018-07-05T10:28:57.875Z,33.64
2018-07-05T10:31:37.397Z,34.45
2018-07-05T10:34:04.523Z,34.72
2018-07-05T10:36:32.326Z,34.14
2018-07-05T10:38:59.442Z,34.35
2018-07-05T10:41:38.912Z,34.08
2018-07-05T10:44:18.567Z,34.53
2018-07-05T10:46:58.266Z,34.76
2018-07-05T10:49:37.720Z,34.08
2018-07-05T10:52:17.082Z,34.35
2018-07-05T10:54:56.410Z,35.31
2018-07-05T10:57:35.946Z,36.11
2018-07-05T11:00:15.366Z,35.59
2018-07-05T11:02:54.958Z,34.60
2018-07-05T11:05:34.488Z,35.95
2018-07-05T11:08:14.141Z,35.80
2018-07-05T11:10:53.766Z,36.04
2018-07-05T11:13:33.273Z,36.93
2018-07-05T11:16:12.784Z,37.70
2018-07-05T11:18:52.437Z,37.18
2018-07-05T11:21:31.942Z,38.27
2018-07-05T11:24:11.668Z,39.31
2018-07-05T11:26:51.209Z,39.26
2018-07-05T11:29:30.729Z,38.10
2018-07-05T11:32:10.291Z,40.28
2018-07-05T11:34:49.761Z,38.68
2018-07-05T11:37:29.281Z,41.31
2018-07-05T11:40:08.705Z,40.57
2018-07-05T11:42:48.264Z,40.55
2018-07-05T11:45:27.833Z,41.21
2018-07-05T11:48:07.499Z,43.36
2018-07-05T11:50:47.245Z,44.05
2018-07-05T11:53:26.703Z,38.48
2018-07-05T11:56:06.258Z,40.87
2018-07-05T11:58:45.792Z,42.79
2018-07-05T12:01:25.274Z,44.29
2018-07-05T12:04:04.826Z,44.54
2018-07-05T12:06:44.302Z,46.68
2018-07-05T12:09:23.800Z,43.37
2018-07-05T12:12:03.274Z,44.53
2018-07-05T12:14:42.749Z,45.64
2018-07-05T12:17:22.334Z,47.46
2018-07-05T12:20:01.884Z,47.78
2018-07-05T12:22:41.553Z,49.08
2018-07-05T12:25:21.285Z,49.23
2018-07-05T12:28:00.733Z,47.67
2018-07-05T12:30:40.415Z,46.46
2018-07-05T12:33:19.913Z,45.44
2018-07-05T12:35:59.323Z,46.93
2018-07-05T12:38:38.799Z,46.12
2018-07-05T12:41:18.211Z,46.22
2018-07-05T12:43:57.757Z,46.49
2018-07-05T12:46:37.259Z,46.88
2018-07-05T12:49:16.748Z,45.32
2018-07-05T12:51:56.340Z,42.28
2018-07-05T12:54:35.906Z,48.19
2018-07-05T12:57:15.526Z,47.42
2018-07-05T12:59:55.042Z,46.96
2018-07-05T13:02:34.548Z,45.60
2018-07-05T13:05:13.926Z,48.34
2018-07-05T13:07:53.478Z,47.12
2018-07-05T13:10:33.187Z,45.14
2018-07-05T13:13:12.722Z,42.36
2018-07-05T13:15:52.178Z,42.17
2018-07-05T13:18:31.686Z,41.69
2018-07-05T13:21:11.138Z,42.44
2018-07-05T13:23:50.651Z,42.06
2018-07-05T13:26:30.154Z,41.99
2018-07-05T13:29:09.682Z,41.32
2018-07-05T13:31:49.290Z,41.16
2018-07-05T13:34:28.974Z,42.67
2018-07-05T13:37:08.394Z,43.88
2018-07-05T13:39:47.828Z,44.94
2018-07-05T13:42:27.409Z,45.53
2018-07-05T13:45:06.869Z,47.67
2018-07-05T13:47:46.399Z,46.62
2018-07-05T13:50:25.897Z,45.03
2018-07-05T13:53:05.557Z,45.44
2018-07-05T13:55:45.145Z,46.27
2018-07-05T13:58:24.816Z,46.69
2018-07-05T14:01:04.241Z,45.29
2018-07-05T14:03:43.736Z,41.96
2018-07-05T14:06:23.106Z,43.04
2018-07-05T14:09:02.649Z,44.57
2018-07-05T14:11:42.165Z,42.79
2018-07-05T14:14:21.693Z,40.99
2018-07-05T14:17:01.282Z,37.56
2018-07-05T14:19:40.738Z,37.65
2018-07-05T14:22:20.198Z,36.59
2018-07-05T14:24:59.744Z,36.49
2018-07-05T14:27:39.298Z,37.12
2018-07-05T14:30:18.890Z,36.75
2018-07-05T14:32:58.500Z,37.35
2018-07-05T14:35:38.042Z,37.72
2018-07-05T14:38:17.568Z,40.59
2018-07-05T14:40:57.154Z,41.84
2018-07-05T14:43:36.786Z,41.39
2018-07-05T14:46:16.317Z,38.43
2018-07-05T14:48:55.745Z,37.60
2018-07-05T14:51:35.202Z,36.07
2018-07-05T14:54:14.740Z,35.13
2018-07-05T14:56:54.273Z,35.40
2018-07-05T14:59:33.720Z,33.76
2018-07-05T15:02:13.413Z,33.18
2018-07-05T15:04:53.311Z,31.42
2018-07-05T15:07:32.837Z,31.88
2018-07-05T15:10:12.365Z,31.47
2018-07-05T15:12:52.028Z,34.48
2018-07-05T15:15:31.565Z,33.14
2018-07-05T15:18:11.037Z,30.93
2018-07-05T15:20:51.223Z,29.63
2018-07-05T15:23:30.722Z,28.96
2018-07-05T15:26:10.460Z,28.25
2018-07-05T15:28:50.033Z,29.36
2018-07-05T15:31:29.531Z,27.97
2018-07-05T15:34:09.140Z,28.78
2018-07-05T15:36:48.684Z,30.38
2018-07-05T15:39:28.262Z,30.59
2018-07-05T15:42:07.762Z,30.93
2018-07-05T15:44:47.230Z,32.03
2018-07-05T15:47:26.719Z,30.86
2018-07-05T15:50:06.189Z,29.25
2018-07-05T15:52:45.777Z,29.99
2018-07-05T15:55:25.307Z,29.92
2018-07-05T15:58:04.930Z,30.32
2018-07-05T16:00:44.372Z,29.79
2018-07-05T16:03:24.054Z,29.46
2018-07-05T16:06:03.633Z,29.29
2018-07-05T16:08:43.217Z,28.71
2018-07-05T16:11:22.801Z,28.12
2018-07-05T16:14:02.501Z,28.24
2018-07-05T16:16:41.993Z,27.59
2018-07-05T16:19:21.464Z,27.86
2018-07-05T16:22:01.201Z,27.22
2018-07-05T16:24:40.777Z,27.61
2018-07-05T16:27:20.224Z,27.11
2018-07-05T16:29:59.919Z,26.29
2018-07-05T16:32:39.582Z,26.75
2018-07-05T16:35:19.087Z,27.15
2018-07-05T16:37:58.679Z,26.92
2018-07-05T16:40:38.170Z,26.97
2018-07-05T16:43:17.762Z,26.25
2018-07-05T16:45:57.382Z,26.28
2018-07-05T16:48:36.818Z,25.97
2018-07-05T16:51:16.242Z,26.06
2018-07-05T16:53:55.845Z,25.67
2018-07-05T16:56:35.325Z,25.39
2018-07-05T16:59:14.960Z,25.09
2018-07-05T17:01:54.679Z,25.11
2018-07-05T17:04:34.179Z,25.00
2018-07-05T17:07:13.746Z,25.34
2018-07-05T17:09:53.333Z,24.57
2018-07-05T17:12:32.893Z,24.88
2018-07-05T17:15:12.426Z,24.94
2018-07-05T17:17:52.046Z,25.01
2018-07-05T17:20:31.592Z,24.29
2018-07-05T17:23:11.230Z,24.17
2018-07-05T17:25:50.654Z,24.54
2018-07-05T17:28:30.118Z,24.21
2018-07-05T17:31:09.528Z,24.38
2018-07-05T17:33:49.198Z,24.39
2018-07-05T17:36:29.381Z,24.38
2018-07-05T17:39:08.990Z,24.32
2018-07-05T17:41:48.532Z,24.33
2018-07-05T17:44:27.984Z,24.13
2018-07-05T17:47:07.527Z,24.21
2018-07-05T17:49:47.077Z,23.90
2018-07-05T17:52:26.588Z,24.08
2018-07-05T17:55:06.129Z,24.04
2018-07-05T17:57:45.622Z,23.97
2018-07-05T18:00:25.028Z,23.98
2018-07-05T18:03:04.588Z,24.22
2018-07-05T18:05:43.960Z,23.98
2018-07-05T18:08:23.711Z,23.72
2018-07-05T18:11:03.144Z,24.05
2018-07-05T18:13:42.899Z,23.81
2018-07-05T18:16:22.452Z,23.87
2018-07-05T18:21:28.716Z,23.81
2018-07-05T18:24:08.121Z,23.88
2018-07-05T18:26:47.606Z,23.90
2018-07-05T18:29:26.986Z,23.84
2018-07-05T18:32:06.638Z,23.77
2018-07-05T18:34:46.198Z,23.69
2018-07-05T18:37:25.794Z,23.65
2018-07-05T18:40:05.442Z,23.73
2018-07-05T18:42:45.066Z,23.56
2018-07-05T18:45:24.590Z,23.40
2018-07-05T18:48:04.236Z,23.39
2018-07-05T18:50:43.781Z,23.37
2018-07-05T18:53:23.193Z,23.18
2018-07-05T18:56:02.565Z,22.96
2018-07-05T18:58:41.998Z,23.02
2018-07-05T19:01:21.554Z,22.93
2018-07-05T19:04:01.208Z,22.91
2018-07-05T19:06:40.589Z,22.72
2018-07-05T19:09:20.077Z,22.68
2018-07-05T19:11:59.539Z,22.70
2018-07-05T19:14:39.135Z,22.78
2018-07-05T19:17:18.504Z,22.59
2018-07-05T19:19:57.996Z,22.43
2018-07-05T19:22:37.449Z,22.45
2018-07-05T19:25:16.900Z,22.48
2018-07-05T19:27:56.408Z,22.48
2018-07-05T19:30:35.889Z,22.41
2018-07-05T19:33:15.454Z,22.24
2018-07-05T19:35:54.871Z,22.13
2018-07-05T19:38:34.277Z,22.13
2018-07-05T19:41:13.767Z,22.03
2018-07-05T19:43:53.476Z,21.99
2018-07-05T19:46:32.913Z,22.07
2018-07-05T19:49:12.443Z,21.96
2018-07-05T19:51:51.834Z,21.80
2018-07-05T19:54:31.475Z,21.83
2018-07-05T19:57:10.990Z,21.86
2018-07-05T19:59:50.618Z,21.70
2018-07-05T20:02:30.198Z,21.74
2018-07-05T20:05:09.638Z,21.62
2018-07-05T20:07:49.028Z,21.49
2018-07-05T20:10:28.526Z,21.55
2018-07-05T20:13:08.084Z,21.48
2018-07-05T20:15:47.626Z,21.30
2018-07-05T20:18:27.292Z,21.31
2018-07-05T20:21:06.849Z,21.26
2018-07-05T20:23:46.459Z,21.06
2018-07-05T20:26:25.995Z,21.18
2018-07-05T20:29:05.425Z,21.01
2018-07-05T20:31:44.921Z,21.05
2018-07-05T20:34:24.419Z,21.03
2018-07-05T20:37:03.973Z,20.99
2018-07-05T20:39:43.874Z,20.99
2018-07-05T20:42:23.338Z,21.08
2018-07-05T20:45:02.858Z,21.15
2018-07-05T20:47:42.492Z,20.99
2018-07-05T20:50:22.042Z,21.08
2018-07-05T20:53:01.537Z,21.03
2018-07-05T20:55:41.061Z,20.99
2018-07-05T20:58:20.465Z,20.93
2018-07-05T21:00:59.990Z,20.64
2018-07-05T21:03:39.360Z,20.84
2018-07-05T21:06:18.777Z,20.90
2018-07-05T21:08:58.257Z,20.84
2018-07-05T21:11:37.671Z,20.82
2018-07-05T21:14:17.125Z,20.82
2018-07-05T21:16:56.921Z,20.88
2018-07-05T21:19:36.326Z,20.99
2018-07-05T21:22:16.225Z,20.95
2018-07-05T21:24:55.639Z,20.87
2018-07-05T21:27:35.051Z,20.95
2018-07-05T21:30:14.754Z,20.92
2018-07-05T21:32:54.306Z,21.02
2018-07-05T21:35:33.726Z,20.97
2018-07-05T21:38:13.268Z,21.06
2018-07-05T21:40:52.742Z,20.96
2018-07-05T21:43:32.572Z,21.06
2018-07-05T21:46:11.966Z,20.94
2018-07-05T21:48:51.486Z,20.97
2018-07-05T21:51:30.986Z,21.05
2018-07-05T21:54:10.465Z,21.00
2018-07-05T21:56:49.844Z,21.00
2018-07-05T21:59:29.272Z,20.94
2018-07-05T22:02:08.726Z,20.94
2018-07-05T22:04:48.274Z,20.97
2018-07-05T22:07:27.702Z,20.93
2018-07-05T22:10:07.142Z,20.95
2018-07-05T22:12:46.674Z,20.92
2018-07-05T22:15:26.290Z,21.01
2018-07-05T22:18:11.067Z,21.02
2018-07-05T22:20:56.030Z,20.92
2018-07-05T22:23:41.079Z,20.91
2018-07-05T22:26:26.080Z,20.92
2018-07-05T22:29:10.861Z,20.86
2018-07-05T22:31:57.073Z,20.90
2018-07-05T22:34:36.621Z,20.80
2018-07-05T22:37:16.165Z,20.72
2018-07-05T22:39:56.087Z,20.89
2018-07-05T22:42:35.846Z,20.92
2018-07-05T22:45:15.384Z,20.79
2018-07-05T22:47:54.906Z,20.79
2018-07-05T22:50:34.760Z,20.80
2018-07-05T22:53:14.460Z,20.84
2018-07-05T22:55:54.456Z,20.77
2018-07-05T22:58:34.250Z,20.81
2018-07-05T23:01:13.843Z,20.73
2018-07-05T23:03:53.562Z,20.83
2018-07-05T23:06:33.194Z,20.84
2018-07-05T23:09:12.733Z,20.75
2018-07-05T23:11:52.186Z,20.78
2018-07-05T23:14:31.657Z,20.67
2018-07-05T23:17:11.118Z,20.76
2018-07-05T23:19:50.730Z,20.84
2018-07-05T23:22:30.234Z,20.66
2018-07-05T23:25:09.682Z,20.77
2018-07-05T23:27:49.242Z,20.84
2018-07-05T23:30:28.772Z,20.79
2018-07-05T23:33:08.125Z,20.85
2018-07-05T23:35:47.701Z,20.80
2018-07-05T23:38:27.185Z,20.72
2018-07-05T23:41:06.585Z,20.78
2018-07-05T23:43:46.157Z,20.64
2018-07-05T23:46:25.597Z,20.59
2018-07-05T23:49:05.274Z,20.52
2018-07-05T23:51:44.689Z,20.43
2018-07-05T23:54:24.343Z,20.35
2018-07-05T23:57:03.995Z,20.25
2018-07-05T23:59:43.396Z,20.16
